Time;durP1;ratioP1;P1;durP2;ratioP2;P2;SDS_P1;SDS_P2;PMS_P1;PMS_P2;Temp;Humidity;BMP_temperature;BMP_pressure;BME280_temperature;BME280_humidity;BME280_pressure;Samples;Min_cycle;Max_cycle;Signal;HPM_P1;HPM_P2
2023/06/20 00:00:47;;;;;;;7.45;4.18;;;19.70;98.50;;;;;;5055754;28;20037;-52
2023/06/20 00:03:14;;;;;;;7.80;4.30;;;19.70;98.50;;;;;;5054188;28;20431;-51
2023/06/20 00:05:41;;;;;;;6.70;4.18;;;19.70;98.50;;;;;;5055638;28;20044;-53
2023/06/20 00:08:08;;;;;;;6.85;4.22;;;19.70;98.60;;;;;;5053996;28;20049;-51
2023/06/20 00:10:35;;;;;;;7.15;3.85;;;19.70;98.60;;;;;;5055759;28;20033;-53
2023/06/20 00:13:01;;;;;;;10.43;4.20;;;19.70;98.70;;;;;;5054761;28;20128;-53
2023/06/20 00:15:28;;;;;;;9.80;4.00;;;19.70;98.70;;;;;;5054975;28;20041;-50
2023/06/20 00:17:55;;;;;;;6.55;4.10;;;19.60;98.70;;;;;;5037244;28;20071;-54
2023/06/20 00:20:22;;;;;;;8.20;4.15;;;19.60;98.80;;;;;;5055566;28;20128;-50
2023/06/20 00:22:50;;;;;;;7.53;4.00;;;19.60;98.70;;;;;;5054921;28;20037;-51
2023/06/20 00:25:17;;;;;;;8.40;3.83;;;19.60;98.70;;;;;;5055300;28;20045;-51
2023/06/20 00:27:44;;;;;;;7.95;3.90;;;19.60;98.70;;;;;;5053358;28;20055;-49
2023/06/20 00:30:11;;;;;;;6.80;4.00;;;19.60;98.70;;;;;;5053750;28;20055;-52
2023/06/20 00:32:38;;;;;;;8.60;3.80;;;19.60;98.70;;;;;;5054561;28;20110;-47
2023/06/20 00:35:04;;;;;;;7.72;3.58;;;19.60;98.70;;;;;;5054687;28;20049;-52
2023/06/20 00:37:34;;;;;;;10.10;3.92;;;19.60;98.70;;;;;;5054509;28;20132;-49
2023/06/20 00:40:00;;;;;;;6.75;3.80;;;19.60;98.60;;;;;;5053723;28;20841;-52
2023/06/20 00:42:27;;;;;;;5.35;3.20;;;19.60;98.80;;;;;;5053211;28;20037;-51
2023/06/20 00:44:54;;;;;;;7.03;3.28;;;19.60;99.00;;;;;;5055030;28;20048;-49
2023/06/20 00:47:21;;;;;;;7.10;3.58;;;19.60;98.50;;;;;;5053138;28;20136;-50
2023/06/20 00:49:48;;;;;;;6.22;3.63;;;19.60;98.60;;;;;;5053044;28;20045;-50
2023/06/20 00:52:15;;;;;;;5.97;3.60;;;19.60;98.50;;;;;;5054738;28;20114;-49
2023/06/20 00:54:42;;;;;;;9.55;3.80;;;19.60;98.60;;;;;;5054356;28;20044;-50
2023/06/20 00:57:09;;;;;;;6.78;3.65;;;19.60;98.70;;;;;;5054497;28;20112;-51
2023/06/20 00:59:35;;;;;;;8.35;3.50;;;19.50;98.70;;;;;;5054171;28;20052;-51
2023/06/20 01:02:03;;;;;;;6.68;3.58;;;19.50;98.70;;;;;;5053020;28;20048;-51
2023/06/20 01:04:31;;;;;;;6.30;3.75;;;19.50;98.90;;;;;;5052883;28;20041;-50
2023/06/20 01:06:59;;;;;;;6.13;3.47;;;19.50;98.90;;;;;;5053208;28;20045;-52
2023/06/20 01:09:26;;;;;;;7.60;3.75;;;19.50;98.90;;;;;;5052922;28;20076;-48
2023/06/20 01:11:53;;;;;;;6.63;3.55;;;19.50;98.90;;;;;;5052688;28;20044;-53
2023/06/20 01:14:20;;;;;;;7.05;3.45;;;19.50;99.00;;;;;;5054233;28;20037;-50
2023/06/20 01:16:47;;;;;;;8.05;3.83;;;19.50;99.00;;;;;;5054460;28;20061;-48
2023/06/20 01:19:14;;;;;;;9.25;4.20;;;19.50;99.00;;;;;;5054227;28;20037;-52
2023/06/20 01:21:40;;;;;;;7.13;3.58;;;19.60;99.00;;;;;;5053042;28;20073;-53
2023/06/20 01:24:07;;;;;;;6.35;3.60;;;19.60;98.90;;;;;;5052985;28;20041;-51
2023/06/20 01:26:34;;;;;;;4.80;3.28;;;19.60;99.00;;;;;;5053413;28;20052;-47
2023/06/20 01:29:02;;;;;;;8.48;3.97;;;19.60;99.10;;;;;;5054174;28;20414;-50
2023/06/20 01:31:29;;;;;;;8.18;3.42;;;19.60;99.10;;;;;;5052895;28;20095;-45
2023/06/20 01:33:56;;;;;;;9.43;3.80;;;19.60;99.20;;;;;;5053327;28;20143;-47
2023/06/20 01:36:23;;;;;;;7.03;4.18;;;19.60;99.20;;;;;;5052090;28;20045;-53
2023/06/20 01:38:50;;;;;;;7.70;3.78;;;19.60;99.30;;;;;;5053473;28;20037;-54
2023/06/20 01:41:16;;;;;;;7.70;3.97;;;19.60;99.30;;;;;;5052167;28;20133;-50
2023/06/20 01:43:43;;;;;;;4.93;3.65;;;19.60;99.40;;;;;;5052460;28;20144;-53
2023/06/20 01:46:10;;;;;;;8.98;3.80;;;19.60;99.50;;;;;;5053971;28;20076;-50
2023/06/20 01:48:37;;;;;;;9.35;4.15;;;19.60;99.60;;;;;;5053528;28;20095;-48
2023/06/20 01:51:04;;;;;;;6.90;3.95;;;19.50;99.40;;;;;;5052108;28;20132;-50
2023/06/20 01:53:31;;;;;;;6.72;3.90;;;19.50;99.50;;;;;;5051924;28;20045;-51
2023/06/20 01:56:01;;;;;;;8.25;4.30;;;19.50;99.60;;;;;;5053814;28;20445;-48
2023/06/20 01:58:28;;;;;;;8.25;3.92;;;19.50;99.60;;;;;;5051911;28;20048;-51
2023/06/20 02:00:55;;;;;;;7.10;4.40;;;19.50;99.70;;;;;;5052620;28;20045;-51
2023/06/20 02:03:24;;;;;;;9.48;4.32;;;19.40;99.70;;;;;;5053043;28;20052;-50
2023/06/20 02:05:51;;;;;;;8.77;4.05;;;19.40;99.70;;;;;;5053589;28;20051;-51
2023/06/20 02:08:18;;;;;;;9.27;4.30;;;19.40;99.70;;;;;;5053236;28;20048;-51
2023/06/20 02:10:45;;;;;;;9.30;4.72;;;19.30;99.80;;;;;;5052519;28;20135;-49
2023/06/20 02:13:12;;;;;;;9.77;5.70;;;19.30;99.80;;;;;;5053570;28;20045;-51
2023/06/20 02:15:39;;;;;;;9.60;5.15;;;19.30;99.90;;;;;;5053001;28;20126;-51
2023/06/20 02:18:05;;;;;;;8.13;4.80;;;19.20;99.90;;;;;;5053394;28;20037;-53
2023/06/20 02:20:34;;;;;;;10.18;5.13;;;19.10;99.90;;;;;;5052075;28;20136;-51
2023/06/20 02:23:00;;;;;;;11.93;5.63;;;19.10;99.90;;;;;;5052037;28;20048;-50
2023/06/20 02:25:27;;;;;;;9.35;5.30;;;19.10;99.90;;;;;;5052001;28;20441;-51
2023/06/20 02:27:54;;;;;;;10.43;4.75;;;19.10;99.90;;;;;;5052973;28;20053;-51
2023/06/20 02:30:21;;;;;;;9.80;5.03;;;19.00;99.90;;;;;;5052046;28;20365;-48
2023/06/20 02:32:48;;;;;;;8.68;4.90;;;19.00;99.90;;;;;;5052993;28;20490;-50
2023/06/20 02:35:16;;;;;;;8.13;5.10;;;18.90;99.90;;;;;;5053559;28;20049;-52
2023/06/20 02:37:45;;;;;;;12.38;5.05;;;18.90;99.90;;;;;;5056517;28;20041;-50
2023/06/20 02:40:12;;;;;;;9.23;4.57;;;18.90;99.90;;;;;;5038998;28;20140;-52
2023/06/20 02:42:39;;;;;;;7.25;4.82;;;18.80;99.90;;;;;;5057304;28;20045;-54
2023/06/20 02:45:08;;;;;;;10.20;4.95;;;18.70;99.90;;;;;;5057127;28;20048;-46
2023/06/20 02:47:35;;;;;;;12.00;4.70;;;18.70;99.90;;;;;;5056823;28;20045;-52
2023/06/20 02:50:02;;;;;;;8.73;4.90;;;18.70;99.90;;;;;;5056998;28;20052;-49
2023/06/20 02:52:29;;;;;;;10.82;5.38;;;18.60;99.90;;;;;;5056543;28;20507;-52
2023/06/20 02:54:56;;;;;;;13.32;5.30;;;18.60;99.90;;;;;;5056594;28;20095;-49
2023/06/20 02:57:23;;;;;;;8.18;4.78;;;18.60;99.90;;;;;;5056682;28;20044;-53
2023/06/20 02:59:50;;;;;;;8.80;4.65;;;18.60;99.90;;;;;;5055476;28;20139;-50
2023/06/20 03:02:17;;;;;;;10.18;4.43;;;18.50;99.90;;;;;;5056388;28;20060;-50
2023/06/20 03:04:44;;;;;;;10.07;4.65;;;18.50;99.90;;;;;;5055104;28;20065;-48
2023/06/20 03:07:10;;;;;;;6.38;4.82;;;18.50;99.90;;;;;;5055485;28;20048;-46
2023/06/20 03:09:38;;;;;;;8.15;4.88;;;18.50;99.90;;;;;;5055239;28;20056;-51
2023/06/20 03:12:05;;;;;;;9.57;5.00;;;18.50;99.90;;;;;;5055524;28;20041;-50
2023/06/20 03:14:32;;;;;;;11.27;4.80;;;18.50;99.90;;;;;;5054827;28;20041;-45
2023/06/20 03:17:01;;;;;;;7.28;4.75;;;18.50;99.90;;;;;;5054914;28;20037;-50
2023/06/20 03:19:32;;;;;;;10.35;4.78;;;18.50;99.90;;;;;;5055155;28;20033;-46
2023/06/20 03:22:00;;;;;;;6.85;4.60;;;18.50;99.90;;;;;;5055558;28;20056;-47
2023/06/20 03:24:27;;;;;;;7.55;4.80;;;18.50;99.90;;;;;;5054776;28;20052;-50
2023/06/20 03:26:54;;;;;;;8.93;4.80;;;18.60;99.90;;;;;;5038278;28;20273;-49
2023/06/20 03:29:21;;;;;;;8.25;4.35;;;18.60;99.90;;;;;;5056223;28;20434;-50
2023/06/20 03:31:48;;;;;;;7.78;4.82;;;18.60;99.90;;;;;;5054956;28;20492;-48
2023/06/20 03:34:15;;;;;;;8.52;5.35;;;18.60;99.90;;;;;;5054662;28;20033;-46
2023/06/20 03:36:45;;;;;;;7.20;4.50;;;18.60;99.90;;;;;;5055032;28;20064;-51
2023/06/20 03:39:12;;;;;;;7.75;4.22;;;18.60;99.90;;;;;;5054511;28;20553;-53
2023/06/20 03:41:39;;;;;;;6.85;4.47;;;18.60;99.90;;;;;;5054341;28;20041;-50
2023/06/20 03:44:07;;;;;;;6.90;5.20;;;18.60;99.90;;;;;;5054394;28;20039;-53
2023/06/20 03:46:34;;;;;;;7.05;4.85;;;18.60;99.90;;;;;;5055642;28;20519;-48
2023/06/20 03:49:01;;;;;;;7.82;4.85;;;18.60;99.90;;;;;;5053858;28;20504;-52
2023/06/20 03:51:29;;;;;;;6.43;4.70;;;18.60;99.90;;;;;;5038507;28;20045;-49
2023/06/20 03:53:56;;;;;;;6.53;4.60;;;18.70;99.90;;;;;;5054135;28;20041;-52
2023/06/20 03:56:23;;;;;;;7.60;5.20;;;18.70;99.90;;;;;;5054258;28;20048;-53
2023/06/20 03:58:49;;;;;;;7.60;4.90;;;18.70;99.90;;;;;;5054085;28;20053;-54
2023/06/20 04:01:16;;;;;;;7.28;5.25;;;18.80;99.90;;;;;;5054541;28;20049;-48
2023/06/20 04:03:43;;;;;;;6.88;5.22;;;18.80;99.90;;;;;;5054558;28;20446;-46
2023/06/20 04:06:10;;;;;;;6.75;5.05;;;18.80;99.90;;;;;;5053939;28;20061;-50
2023/06/20 04:08:37;;;;;;;7.78;5.35;;;18.80;99.90;;;;;;5054039;28;20041;-51
2023/06/20 04:11:04;;;;;;;7.97;5.72;;;18.80;99.90;;;;;;5055563;28;20395;-51
2023/06/20 04:13:30;;;;;;;7.70;5.63;;;18.80;99.90;;;;;;5054158;28;20498;-49
2023/06/20 04:15:57;;;;;;;8.85;5.40;;;18.90;99.90;;;;;;5054328;28;20126;-49
2023/06/20 04:18:26;;;;;;;9.30;5.43;;;18.90;99.90;;;;;;5053781;28;20491;-51
2023/06/20 04:20:56;;;;;;;8.20;5.00;;;18.90;99.90;;;;;;5053749;28;20072;-48
2023/06/20 04:23:25;;;;;;;7.53;5.15;;;18.90;99.90;;;;;;5053786;28;20041;-47
2023/06/20 04:25:51;;;;;;;9.82;5.60;;;19.00;99.90;;;;;;5054171;28;20052;-50
2023/06/20 04:28:18;;;;;;;7.40;5.45;;;19.00;99.90;;;;;;5053642;28;20041;-53
2023/06/20 04:30:55;;;;;;;8.40;5.45;;;19.00;99.90;;;;;;5054024;28;20499;-48
2023/06/20 04:33:22;;;;;;;6.65;5.50;;;19.10;99.90;;;;;;5054943;28;20033;-51
2023/06/20 04:35:52;;;;;;;9.15;6.07;;;19.10;99.90;;;;;;5054051;28;20129;-48
2023/06/20 04:38:18;;;;;;;10.05;6.43;;;19.10;99.90;;;;;;5053705;28;20048;-49
2023/06/20 04:40:45;;;;;;;9.52;5.85;;;19.10;99.90;;;;;;5054663;28;20110;-50
2023/06/20 04:43:12;;;;;;;8.05;5.95;;;19.10;99.90;;;;;;5053346;28;20508;-50
2023/06/20 04:45:39;;;;;;;8.10;6.03;;;19.10;99.90;;;;;;5053538;28;20044;-49
2023/06/20 04:48:06;;;;;;;7.68;5.55;;;19.10;99.90;;;;;;5053243;28;20045;-48
2023/06/20 04:50:33;;;;;;;8.85;6.18;;;19.10;99.90;;;;;;5053600;28;20452;-51
2023/06/20 04:53:00;;;;;;;9.32;6.28;;;19.10;99.90;;;;;;5053098;28;20052;-48
2023/06/20 04:55:27;;;;;;;9.43;6.45;;;19.10;99.90;;;;;;5054582;28;20091;-48
2023/06/20 04:57:56;;;;;;;12.60;7.15;;;19.10;99.90;;;;;;5054889;28;20106;-46
2023/06/20 05:00:23;;;;;;;11.00;7.15;;;19.10;99.90;;;;;;5053819;28;20052;-48
2023/06/20 05:02:50;;;;;;;11.20;7.25;;;19.10;99.90;;;;;;5053667;28;20041;-51
2023/06/20 05:05:19;;;;;;;9.88;7.20;;;19.10;99.90;;;;;;5054510;28;20041;-48
2023/06/20 05:07:46;;;;;;;11.43;7.43;;;19.10;99.90;;;;;;5052959;28;20051;-51
2023/06/20 05:10:14;;;;;;;11.55;7.10;;;19.00;99.90;;;;;;5053105;28;20061;-51
2023/06/20 05:12:40;;;;;;;12.77;7.47;;;19.00;99.90;;;;;;5054035;28;20052;-47
2023/06/20 05:15:07;;;;;;;13.35;8.57;;;18.90;99.90;;;;;;5054482;28;20048;-50
2023/06/20 05:17:34;;;;;;;8.88;7.72;;;18.80;99.90;;;;;;5054185;28;20451;-50
2023/06/20 05:20:05;;;;;;;11.02;7.53;;;18.80;99.90;;;;;;5054042;28;20045;-53
2023/06/20 05:22:36;;;;;;;11.75;8.30;;;18.80;99.90;;;;;;5054550;28;20045;-48
2023/06/20 05:25:03;;;;;;;14.65;8.32;;;18.70;99.90;;;;;;5053298;28;20048;-46
2023/06/20 05:27:30;;;;;;;12.05;7.95;;;18.70;99.90;;;;;;5054480;28;20049;-47
2023/06/20 05:29:56;;;;;;;12.38;8.48;;;18.70;99.90;;;;;;5053914;28;20119;-46
2023/06/20 05:32:23;;;;;;;11.93;8.95;;;18.70;99.90;;;;;;5053785;28;20372;-46
2023/06/20 05:34:50;;;;;;;11.85;8.98;;;18.70;99.90;;;;;;5053629;28;20233;-46
2023/06/20 05:37:17;;;;;;;12.63;9.32;;;18.70;99.90;;;;;;5053578;28;20488;-47
2023/06/20 05:39:44;;;;;;;11.38;8.95;;;18.70;99.90;;;;;;5052732;28;20076;-47
2023/06/20 05:42:11;;;;;;;12.18;9.82;;;18.70;99.90;;;;;;5053700;28;20041;-49
2023/06/20 05:44:37;;;;;;;12.77;9.93;;;18.70;99.90;;;;;;5053515;28;20064;-48
2023/06/20 05:47:04;;;;;;;12.07;10.25;;;18.60;99.90;;;;;;5053701;28;20033;-48
2023/06/20 05:49:31;;;;;;;13.73;9.77;;;18.70;99.90;;;;;;5053413;28;20476;-47
2023/06/20 05:51:58;;;;;;;12.98;10.25;;;18.70;99.90;;;;;;5053681;28;20041;-53
2023/06/20 05:54:25;;;;;;;16.05;10.85;;;18.60;99.90;;;;;;5053921;28;20033;-52
2023/06/20 05:56:51;;;;;;;13.95;11.07;;;18.60;99.90;;;;;;5052057;28;20037;-53
2023/06/20 05:59:18;;;;;;;15.00;11.35;;;18.60;99.90;;;;;;5053332;28;20053;-50
2023/06/20 06:01:45;;;;;;;19.58;11.43;;;18.60;99.90;;;;;;5053359;28;20041;-47
2023/06/20 06:04:12;;;;;;;12.45;10.93;;;18.60;99.90;;;;;;5053136;28;20526;-49
2023/06/20 06:06:39;;;;;;;13.70;10.88;;;18.60;99.90;;;;;;5051851;28;20059;-48
2023/06/20 06:09:06;;;;;;;14.77;11.07;;;18.60;99.90;;;;;;5053420;28;20041;-46
2023/06/20 06:11:32;;;;;;;17.25;11.52;;;18.60;99.90;;;;;;5055845;28;20052;-51
2023/06/20 06:14:00;;;;;;;14.13;10.95;;;18.60;99.90;;;;;;5059825;28;20098;-48
2023/06/20 06:16:26;;;;;;;19.13;11.63;;;18.60;99.90;;;;;;5060273;28;20045;-49
2023/06/20 06:18:53;;;;;;;20.13;14.23;;;18.60;99.90;;;;;;5059778;28;20567;-48
2023/06/20 06:21:20;;;;;;;20.77;16.40;;;18.60;99.90;;;;;;5059103;28;20043;-49
2023/06/20 06:23:47;;;;;;;18.83;13.02;;;18.60;99.90;;;;;;5059697;28;20040;-48
2023/06/20 06:26:14;;;;;;;17.30;13.25;;;18.50;99.90;;;;;;5060081;28;20056;-51
2023/06/20 06:28:41;;;;;;;18.20;13.30;;;18.50;99.90;;;;;;5059783;28;20041;-53
2023/06/20 06:31:09;;;;;;;19.85;13.85;;;18.50;99.90;;;;;;5059877;28;20037;-49
2023/06/20 06:33:36;;;;;;;16.00;12.63;;;18.50;99.90;;;;;;5059628;28;20123;-47
2023/06/20 06:36:03;;;;;;;20.77;14.73;;;18.50;99.90;;;;;;5059572;28;20037;-50
2023/06/20 06:38:29;;;;;;;16.00;13.32;;;18.40;99.90;;;;;;5058970;28;20045;-48
2023/06/20 06:40:56;;;;;;;18.65;15.25;;;18.50;99.90;;;;;;5059891;28;20044;-46
2023/06/20 06:43:23;;;;;;;21.80;14.25;;;18.50;99.90;;;;;;5059970;28;20040;-52
2023/06/20 06:45:50;;;;;;;20.08;15.77;;;18.50;99.90;;;;;;5058598;28;20048;-50
2023/06/20 06:48:17;;;;;;;19.00;15.65;;;18.50;99.90;;;;;;5060206;28;20484;-51
2023/06/20 06:50:43;;;;;;;20.15;15.32;;;18.50;99.90;;;;;;5059936;28;20049;-51
2023/06/20 06:53:10;;;;;;;19.40;15.80;;;18.50;99.90;;;;;;5059405;28;20462;-47
2023/06/20 06:55:37;;;;;;;21.08;16.52;;;18.50;99.90;;;;;;5059642;28;20041;-53
2023/06/20 06:58:04;;;;;;;18.90;16.48;;;18.50;99.90;;;;;;5059797;28;20048;-50
2023/06/20 07:00:32;;;;;;;23.02;15.98;;;18.60;99.90;;;;;;5058699;28;20392;-49
2023/06/20 07:02:59;;;;;;;23.15;17.05;;;18.60;99.90;;;;;;5059814;28;20091;-48
2023/06/20 07:05:26;;;;;;;19.98;16.17;;;18.60;99.90;;;;;;5058469;28;20053;-51
2023/06/20 07:07:54;;;;;;;17.20;14.93;;;18.60;99.90;;;;;;5059374;28;20045;-51
2023/06/20 07:10:21;;;;;;;18.70;15.13;;;18.70;99.90;;;;;;5059714;28;20464;-53
2023/06/20 07:12:47;;;;;;;16.38;14.63;;;18.70;99.90;;;;;;5059512;28;20385;-52
2023/06/20 07:15:14;;;;;;;15.85;12.90;;;18.70;99.90;;;;;;5059544;28;20045;-51
2023/06/20 07:17:41;;;;;;;16.15;13.10;;;18.80;99.90;;;;;;5059370;28;20080;-47
2023/06/20 07:20:09;;;;;;;14.43;12.93;;;18.80;99.90;;;;;;5059321;28;20061;-50
2023/06/20 07:22:36;;;;;;;13.70;11.70;;;18.80;99.90;;;;;;5058017;28;20068;-50
2023/06/20 07:25:03;;;;;;;12.88;10.55;;;18.90;99.90;;;;;;5056019;28;20072;-52
2023/06/20 07:27:29;;;;;;;13.18;9.75;;;18.90;99.90;;;;;;5056421;28;20120;-53
2023/06/20 07:29:56;;;;;;;10.02;8.48;;;19.00;99.90;;;;;;5056618;28;20052;-54
2023/06/20 07:32:23;;;;;;;8.93;7.55;;;19.10;99.90;;;;;;5056239;28;20471;-49
2023/06/20 07:34:50;;;;;;;8.20;7.35;;;19.20;99.90;;;;;;5056696;28;20500;-51
2023/06/20 07:37:17;;;;;;;9.15;7.43;;;19.30;99.90;;;;;;5055865;28;20093;-46
2023/06/20 07:39:46;;;;;;;8.35;6.78;;;19.30;99.90;;;;;;5055939;28;20094;-49
2023/06/20 07:42:13;;;;;;;7.00;6.15;;;19.40;99.90;;;;;;5056506;28;20420;-53
2023/06/20 07:44:40;;;;;;;6.93;6.07;;;19.50;99.90;;;;;;5055999;28;20044;-50
2023/06/20 07:47:07;;;;;;;6.82;5.95;;;19.60;99.90;;;;;;5056317;28;20388;-48
2023/06/20 07:49:33;;;;;;;8.57;5.60;;;19.60;99.90;;;;;;5056404;28;20045;-48
2023/06/20 07:52:00;;;;;;;6.40;5.50;;;19.70;99.90;;;;;;5056194;28;20052;-52
2023/06/20 07:54:27;;;;;;;6.40;5.25;;;19.90;99.90;;;;;;5055841;28;20047;-52
2023/06/20 07:56:54;;;;;;;5.57;4.93;;;20.10;99.90;;;;;;5055652;28;20383;-51
2023/06/20 07:59:21;;;;;;;4.65;4.13;;;20.30;99.90;;;;;;5054252;28;20399;-50
2023/06/20 08:01:48;;;;;;;4.40;3.85;;;20.50;99.90;;;;;;5055459;28;20065;-54
2023/06/20 08:04:15;;;;;;;5.80;3.80;;;20.70;99.90;;;;;;5055281;28;20040;-52
2023/06/20 08:06:41;;;;;;;3.90;2.85;;;20.90;99.90;;;;;;5055474;28;20048;-50
2023/06/20 08:09:08;;;;;;;3.85;2.58;;;21.10;99.90;;;;;;5055772;28;20479;-47
2023/06/20 08:11:35;;;;;;;3.13;2.10;;;21.30;99.90;;;;;;5055909;28;20044;-47
2023/06/20 08:14:02;;;;;;;3.08;1.90;;;21.40;99.90;;;;;;5055831;28;20049;-52
2023/06/20 08:16:29;;;;;;;4.13;1.60;;;21.50;99.90;;;;;;5055753;28;20041;-51
2023/06/20 08:18:56;;;;;;;3.65;1.85;;;21.70;99.90;;;;;;5055228;28;20098;-52
2023/06/20 08:21:22;;;;;;;3.03;1.77;;;21.90;99.90;;;;;;5054353;28;20045;-53
2023/06/20 08:23:49;;;;;;;2.42;1.63;;;22.00;99.90;;;;;;5055047;28;20476;-50
2023/06/20 08:26:16;;;;;;;2.30;1.67;;;22.00;99.90;;;;;;5055275;28;20041;-51
2023/06/20 08:28:43;;;;;;;2.63;1.80;;;22.00;99.90;;;;;;5055189;28;20041;-52
2023/06/20 08:31:10;;;;;;;4.13;2.00;;;22.10;99.90;;;;;;5055422;28;20546;-51
2023/06/20 08:33:37;;;;;;;4.18;2.00;;;22.00;99.90;;;;;;5055062;28;20414;-51
2023/06/20 08:36:04;;;;;;;2.95;2.15;;;22.00;99.90;;;;;;5054969;28;20487;-52
2023/06/20 08:38:31;;;;;;;3.45;2.30;;;22.10;99.90;;;;;;5054211;28;20045;-52
2023/06/20 08:40:58;;;;;;;3.28;2.35;;;22.10;99.90;;;;;;5055268;28;20033;-51
2023/06/20 08:43:26;;;;;;;5.43;2.67;;;22.20;99.90;;;;;;5055160;28;20047;-54
2023/06/20 08:45:55;;;;;;;4.90;2.72;;;22.20;99.90;;;;;;5054773;28;20037;-52
2023/06/20 08:48:22;;;;;;;3.60;2.83;;;22.10;99.90;;;;;;5054752;28;20500;-52
2023/06/20 08:50:49;;;;;;;6.53;2.92;;;22.10;99.90;;;;;;5054906;28;20127;-51
2023/06/20 08:53:16;;;;;;;6.60;3.72;;;22.00;99.90;;;;;;5054359;28;20586;-50
2023/06/20 08:55:43;;;;;;;4.80;4.07;;;21.90;99.90;;;;;;5054411;28;20048;-48
2023/06/20 08:58:10;;;;;;;5.55;4.38;;;21.80;99.90;;;;;;5054140;28;20044;-47
2023/06/20 09:00:40;;;;;;;9.98;4.70;;;21.80;99.90;;;;;;5054927;28;20095;-50
2023/06/20 09:03:07;;;;;;;6.43;5.28;;;21.80;99.90;;;;;;5054251;28;20033;-50
2023/06/20 09:05:34;;;;;;;8.02;6.40;;;21.70;99.90;;;;;;5054344;28;20041;-51
2023/06/20 09:08:01;;;;;;;6.85;5.68;;;21.70;99.90;;;;;;5054683;28;20037;-53
2023/06/20 09:10:28;;;;;;;6.40;5.65;;;21.60;99.90;;;;;;5054807;28;20435;-53
2023/06/20 09:12:59;;;;;;;7.20;6.05;;;21.60;99.90;;;;;;5054059;28;20060;-52
2023/06/20 09:15:25;;;;;;;7.55;5.85;;;21.60;99.90;;;;;;5054191;28;20056;-52
2023/06/20 09:17:53;;;;;;;8.77;5.78;;;21.60;99.90;;;;;;5052840;28;20120;-50
2023/06/20 09:20:20;;;;;;;7.35;5.95;;;21.60;99.90;;;;;;5054127;28;20037;-51
2023/06/20 09:22:47;;;;;;;11.77;6.30;;;21.60;99.90;;;;;;5053982;28;20622;-49
2023/06/20 09:25:13;;;;;;;8.98;6.50;;;21.50;99.90;;;;;;5054123;28;20044;-52
2023/06/20 09:27:40;;;;;;;8.02;6.30;;;21.50;99.90;;;;;;5053971;28;20133;-52
2023/06/20 09:30:07;;;;;;;10.20;6.68;;;21.40;99.90;;;;;;5054135;28;20102;-54
2023/06/20 09:32:34;;;;;;;9.63;6.70;;;21.30;99.90;;;;;;5053844;28;20037;-50
2023/06/20 09:35:01;;;;;;;11.23;6.70;;;21.20;99.90;;;;;;5053979;28;20049;-50
2023/06/20 09:37:28;;;;;;;11.38;7.70;;;21.20;99.90;;;;;;5054121;28;20041;-52
2023/06/20 09:39:55;;;;;;;10.63;7.18;;;21.20;99.90;;;;;;5054033;28;20546;-50
2023/06/20 09:42:21;;;;;;;8.73;7.40;;;21.20;99.90;;;;;;5053481;28;20472;-50
2023/06/20 09:44:48;;;;;;;9.77;7.38;;;21.20;99.90;;;;;;5053996;28;20053;-49
2023/06/20 09:47:15;;;;;;;9.73;7.43;;;21.30;99.90;;;;;;5052982;28;20127;-47
2023/06/20 09:49:42;;;;;;;11.65;7.50;;;21.30;99.90;;;;;;5053580;28;20403;-52
2023/06/20 09:52:14;;;;;;;8.50;7.38;;;21.40;99.90;;;;;;5052307;28;20403;-50
2023/06/20 09:54:41;;;;;;;12.70;7.60;;;21.50;99.90;;;;;;5054164;28;20431;-52
2023/06/20 09:57:08;;;;;;;10.00;7.88;;;21.70;99.90;;;;;;5053455;28;20495;-54
2023/06/20 09:59:36;;;;;;;11.68;7.57;;;21.80;99.90;;;;;;5053502;28;20059;-51
2023/06/20 10:02:03;;;;;;;10.88;7.22;;;22.00;99.90;;;;;;5052252;28;20047;-49
2023/06/20 10:04:30;;;;;;;13.40;7.68;;;22.10;99.90;;;;;;5053883;28;20052;-53
2023/06/20 10:06:57;;;;;;;14.45;7.22;;;22.10;99.90;;;;;;5053210;28;20045;-51
2023/06/20 10:09:24;;;;;;;9.18;6.93;;;22.20;99.90;;;;;;5053508;28;20047;-52
2023/06/20 10:11:50;;;;;;;10.00;7.57;;;22.40;99.90;;;;;;5053761;28;20106;-54
2023/06/20 10:14:17;;;;;;;11.80;7.82;;;22.40;99.90;;;;;;5051879;28;20427;-48
2023/06/20 10:16:44;;;;;;;9.98;7.03;;;22.50;99.90;;;;;;5053369;28;20132;-54
2023/06/20 10:19:11;;;;;;;7.13;6.40;;;22.60;99.90;;;;;;5053233;28;20120;-49
2023/06/20 10:21:37;;;;;;;10.90;6.80;;;22.70;99.90;;;;;;5052495;28;20052;-45
2023/06/20 10:24:04;;;;;;;7.72;5.95;;;22.70;99.90;;;;;;5051956;28;20047;-51
2023/06/20 10:26:31;;;;;;;10.23;6.45;;;22.90;99.90;;;;;;5053117;28;20136;-49
2023/06/20 10:29:00;;;;;;;9.68;6.07;;;23.00;99.90;;;;;;5052010;28;20112;-52
2023/06/20 10:31:26;;;;;;;9.50;6.43;;;23.10;99.90;;;;;;5052897;28;20056;-50
2023/06/20 10:33:53;;;;;;;9.30;6.25;;;23.20;99.90;;;;;;5052971;28;20498;-54
2023/06/20 10:36:20;;;;;;;15.07;6.75;;;23.20;99.90;;;;;;5053557;28;20095;-49
2023/06/20 10:38:47;;;;;;;20.10;7.30;;;23.30;99.90;;;;;;5053007;28;20073;-54
2023/06/20 10:41:14;;;;;;;15.65;6.15;;;23.50;99.90;;;;;;5053479;28;20037;-47
2023/06/20 10:43:41;;;;;;;7.68;4.95;;;23.60;99.90;;;;;;5053331;28;20060;-49
2023/06/20 10:46:07;;;;;;;8.95;4.43;;;23.60;99.90;;;;;;5051682;28;20417;-55
2023/06/20 10:48:34;;;;;;;8.38;4.18;;;23.70;99.90;;;;;;5053515;28;20045;-54
2023/06/20 10:51:01;;;;;;;7.13;4.00;;;23.70;99.90;;;;;;5053232;28;20067;-54
2023/06/20 10:53:28;;;;;;;5.25;3.83;;;23.90;99.90;;;;;;5051764;28;20049;-50
2023/06/20 10:55:55;;;;;;;7.43;3.88;;;24.00;99.90;;;;;;5052831;28;20052;-54
2023/06/20 10:58:22;;;;;;;6.20;3.00;;;24.10;99.90;;;;;;5053865;28;20125;-47
2023/06/20 11:00:58;;;;;;;7.50;3.58;;;24.20;99.90;;;;;;5056893;28;20037;-51
2023/06/20 11:03:25;;;;;;;6.20;3.40;;;24.00;99.90;;;;;;5057161;28;20037;-51
2023/06/20 11:05:54;;;;;;;4.70;3.00;;;23.90;99.90;;;;;;5057116;28;20404;-49
2023/06/20 11:08:20;;;;;;;4.65;3.00;;;23.90;99.90;;;;;;5056880;28;20037;-47
2023/06/20 11:10:47;;;;;;;4.55;2.78;;;23.80;99.90;;;;;;5056694;28;20045;-54
2023/06/20 11:13:14;;;;;;;7.90;2.83;;;23.90;99.90;;;;;;5056772;28;20059;-50
2023/06/20 11:15:41;;;;;;;5.13;2.42;;;24.00;99.90;;;;;;5056584;28;20041;-51
2023/06/20 11:18:08;;;;;;;4.80;2.50;;;24.00;99.90;;;;;;5056395;28;20045;-50
2023/06/20 11:20:39;;;;;;;4.03;2.30;;;24.00;99.90;;;;;;5056491;28;20067;-52
2023/06/20 11:23:05;;;;;;;3.35;2.25;;;24.10;99.90;;;;;;5056805;28;20045;-45
2023/06/20 11:25:32;;;;;;;3.10;2.17;;;24.10;99.90;;;;;;5055491;28;20029;-48
2023/06/20 11:27:59;;;;;;;6.70;2.40;;;23.90;99.90;;;;;;5055409;28;20043;-53
2023/06/20 11:30:26;;;;;;;4.88;2.65;;;23.90;99.90;;;;;;5056494;28;20068;-52
2023/06/20 11:32:53;;;;;;;4.90;2.47;;;23.80;99.90;;;;;;5056097;28;20045;-50
2023/06/20 11:35:20;;;;;;;3.45;2.25;;;23.80;99.90;;;;;;5056462;28;20033;-46
2023/06/20 11:37:47;;;;;;;4.97;2.20;;;23.80;99.90;;;;;;5056309;28;20044;-47
2023/06/20 11:40:13;;;;;;;4.05;2.60;;;23.90;99.90;;;;;;5056373;28;20036;-48
2023/06/20 11:42:40;;;;;;;7.20;2.40;;;23.90;99.90;;;;;;5056301;28;20036;-51
2023/06/20 11:45:08;;;;;;;5.25;2.40;;;24.10;99.90;;;;;;5055975;28;20123;-49
2023/06/20 11:47:34;;;;;;;3.15;2.30;;;24.10;99.90;;;;;;5055972;28;20041;-47
2023/06/20 11:50:01;;;;;;;3.67;2.15;;;24.20;99.50;;;;;;5055880;28;20068;-50
2023/06/20 11:52:28;;;;;;;3.10;1.98;;;24.30;99.90;;;;;;5056010;28;20530;-55
2023/06/20 11:54:58;;;;;;;3.60;2.60;;;24.40;99.50;;;;;;5056006;28;20052;-48
2023/06/20 11:57:28;;;;;;;3.35;2.30;;;24.50;99.30;;;;;;5055670;28;20049;-49
2023/06/20 11:59:55;;;;;;;5.18;2.70;;;24.60;99.30;;;;;;5055422;28;20052;-48
2023/06/20 12:02:23;;;;;;;2.30;1.73;;;24.70;99.30;;;;;;5056179;28;20114;-49
2023/06/20 12:04:50;;;;;;;3.65;2.15;;;24.80;98.80;;;;;;5055561;28;20373;-50
2023/06/20 12:07:18;;;;;;;7.40;2.13;;;24.80;98.70;;;;;;5055892;28;20049;-45
2023/06/20 12:09:45;;;;;;;2.70;1.73;;;24.80;98.30;;;;;;5054900;28;20041;-45
2023/06/20 12:12:12;;;;;;;3.10;1.83;;;24.70;98.10;;;;;;5055888;28;20069;-45
2023/06/20 12:14:38;;;;;;;3.78;1.85;;;24.70;98.30;;;;;;5055744;28;20045;-46
2023/06/20 12:17:05;;;;;;;3.25;1.83;;;24.60;98.30;;;;;;5055246;28;20041;-49
2023/06/20 12:19:32;;;;;;;2.42;1.70;;;24.70;98.90;;;;;;5053796;28;20483;-48
2023/06/20 12:21:59;;;;;;;3.80;1.60;;;24.80;98.20;;;;;;5055068;28;20041;-47
2023/06/20 12:24:29;;;;;;;2.53;1.52;;;24.90;98.10;;;;;;5054789;28;20033;-47
2023/06/20 12:26:56;;;;;;;3.03;1.38;;;24.90;98.10;;;;;;5055088;28;20503;-47
2023/06/20 12:29:23;;;;;;;4.05;1.42;;;24.90;98.00;;;;;;5055444;28;20047;-46
2023/06/20 12:31:50;;;;;;;4.38;1.30;;;24.80;97.60;;;;;;5055391;28;20033;-48
2023/06/20 12:34:17;;;;;;;3.47;1.40;;;24.80;98.20;;;;;;5054893;28;20049;-49
2023/06/20 12:36:46;;;;;;;2.50;1.40;;;24.80;97.60;;;;;;5053723;28;20045;-46
2023/06/20 12:39:12;;;;;;;2.88;1.30;;;24.80;97.60;;;;;;5054817;28;20045;-46
2023/06/20 12:41:39;;;;;;;2.40;1.25;;;24.90;98.10;;;;;;5054683;28;20080;-45